createdAt,value
2022-08-16T00:00:22.118Z,75.4
2022-08-16T00:02:16.074Z,75.4
2022-08-16T00:04:16.595Z,75.4
2022-08-16T00:06:16.548Z,75.4
2022-08-16T00:08:35.789Z,75.4
2022-08-16T00:10:21.085Z,75.4
2022-08-16T00:12:18.578Z,75.4
2022-08-16T00:14:22.537Z,75.2
2022-08-16T00:17:11.479Z,75.2
2022-08-16T00:18:19.353Z,75.2
2022-08-16T00:20:21.039Z,75.8
2022-08-16T00:22:20.833Z,75.8
2022-08-16T00:24:31.110Z,75.7
2022-08-16T00:26:34.592Z,75.7
2022-08-16T00:28:20.483Z,75.7
2022-08-16T00:30:29.000Z,75.7
2022-08-16T00:32:21.016Z,75.7
2022-08-16T00:34:22.265Z,76
2022-08-16T00:36:21.677Z,76
2022-08-16T00:38:40.343Z,76
2022-08-16T00:40:34.322Z,76.5
2022-08-16T00:42:30.095Z,76.5
2022-08-16T00:44:23.138Z,77.1
2022-08-16T00:46:33.834Z,77.1
2022-08-16T00:48:31.347Z,77.1
2022-08-16T00:50:36.567Z,77.1
2022-08-16T00:52:30.072Z,77.1
2022-08-16T00:54:28.460Z,77.6
2022-08-16T00:56:57.867Z,77.6
2022-08-16T00:58:35.022Z,77.6
2022-08-16T01:00:26.142Z,77.6
2022-08-16T01:02:30.850Z,78.2
2022-08-16T01:04:29.836Z,78.2
2022-08-16T01:06:32.476Z,78.2
2022-08-16T01:08:35.026Z,78.7
2022-08-16T01:10:31.955Z,78.7
2022-08-16T01:12:27.634Z,79.3
2022-08-16T01:14:32.323Z,79.1
2022-08-16T01:16:29.967Z,79.1
2022-08-16T01:18:40.803Z,79.1
2022-08-16T01:20:32.728Z,79.1
2022-08-16T01:22:47.778Z,79.1
2022-08-16T01:24:52.726Z,79.5
2022-08-16T01:26:34.157Z,79.9
2022-08-16T01:28:32.338Z,79.9
2022-08-16T01:30:32.582Z,79.4
2022-08-16T01:32:34.597Z,80
2022-08-16T01:34:31.305Z,80.1
2022-08-16T01:36:33.812Z,80.1
2022-08-16T01:38:34.481Z,80.5
2022-08-16T01:40:32.196Z,80.5
2022-08-16T01:42:32.953Z,80.5
2022-08-16T01:44:37.289Z,80.6
2022-08-16T01:46:40.008Z,80.6
2022-08-16T01:48:34.294Z,80.6
2022-08-16T01:50:59.680Z,80.6
2022-08-16T01:52:37.251Z,80.6
2022-08-16T01:54:34.759Z,81
2022-08-16T01:56:35.819Z,81
2022-08-16T01:58:35.182Z,81
2022-08-16T02:00:35.240Z,81
2022-08-16T02:02:35.904Z,81.5
2022-08-16T02:04:48.139Z,81.7
2022-08-16T02:06:38.604Z,81.7
2022-08-16T02:08:36.414Z,81.7
2022-08-16T02:10:37.776Z,81.7
2022-08-16T02:12:50.274Z,81.7
2022-08-16T02:14:38.238Z,81.8
2022-08-16T02:16:37.653Z,82
2022-08-16T02:18:38.427Z,82
2022-08-16T02:20:39.688Z,82
2022-08-16T02:22:38.976Z,82
2022-08-16T02:24:41.241Z,82.1
2022-08-16T02:26:39.127Z,82.1
2022-08-16T02:28:39.380Z,82.1
2022-08-16T02:30:44.064Z,82.1
2022-08-16T02:32:50.072Z,82.1
2022-08-16T02:34:40.815Z,81.5
2022-08-16T02:36:49.967Z,81.5
2022-08-16T02:38:41.059Z,81.5
2022-08-16T02:40:42.189Z,81.5
2022-08-16T02:42:41.519Z,81.5
2022-08-16T02:44:42.391Z,81.1
2022-08-16T02:46:49.811Z,80.9
2022-08-16T02:48:49.181Z,80.9
2022-08-16T02:50:53.546Z,80.9
2022-08-16T02:52:44.188Z,80.9
2022-08-16T02:54:43.881Z,80.8
2022-08-16T02:56:47.839Z,80.8
2022-08-16T02:58:44.569Z,80.8
2022-08-16T03:00:45.453Z,80.4
2022-08-16T03:02:45.897Z,80.4
2022-08-16T03:04:52.558Z,80.1
2022-08-16T03:06:56.490Z,79.8
2022-08-16T03:08:51.801Z,79.2
2022-08-16T03:10:45.930Z,78.2
2022-08-16T03:12:55.706Z,77.7
2022-08-16T03:14:47.619Z,75.7
2022-08-16T03:17:00.201Z,75.1
2022-08-16T03:18:47.898Z,75.1
2022-08-16T03:20:55.709Z,75.1
2022-08-16T03:22:48.465Z,75.2
2022-08-16T03:24:48.355Z,75.2
2022-08-16T03:26:48.880Z,75.7
2022-08-16T03:28:49.943Z,75.7
2022-08-16T03:30:49.915Z,75.7
2022-08-16T03:32:51.526Z,76.1
2022-08-16T03:34:50.178Z,76.1
2022-08-16T03:36:50.948Z,76.1
2022-08-16T03:38:50.851Z,76.1
2022-08-16T03:40:51.681Z,76.1
2022-08-16T03:43:19.101Z,75.2
2022-08-16T03:45:02.955Z,74.6
2022-08-16T03:46:55.892Z,74.6
2022-08-16T03:48:52.796Z,74.6
2022-08-16T03:51:00.139Z,73.6
2022-08-16T03:52:59.624Z,74.2
2022-08-16T03:54:58.039Z,74.2
2022-08-16T03:56:57.008Z,72.8
2022-08-16T03:58:55.441Z,72.8
2022-08-16T04:00:56.962Z,72.8
2022-08-16T04:02:58.383Z,73.2
2022-08-16T04:04:56.380Z,73.2
2022-08-16T04:06:57.844Z,73.2
2022-08-16T04:08:57.208Z,73.2
2022-08-16T04:11:00.224Z,72.6
2022-08-16T04:13:04.496Z,72.2
2022-08-16T04:14:59.979Z,72.2
2022-08-16T04:17:06.901Z,73.3
2022-08-16T04:19:02.337Z,72.8
2022-08-16T04:21:01.158Z,71.9
2022-08-16T04:23:01.623Z,71.7
2022-08-16T04:25:07.066Z,71.4
2022-08-16T04:27:02.933Z,71.4
2022-08-16T04:29:15.283Z,70.6
2022-08-16T04:31:04.383Z,70.6
2022-08-16T04:33:05.559Z,70.4
2022-08-16T04:35:13.702Z,70
2022-08-16T04:37:08.423Z,70
2022-08-16T04:39:06.366Z,70
2022-08-16T04:41:07.509Z,70
2022-08-16T04:43:08.675Z,70.5
2022-08-16T04:45:10.666Z,70.5
2022-08-16T04:47:24.261Z,69.3
2022-08-16T04:49:09.813Z,69.3
2022-08-16T04:51:15.307Z,68.4
2022-08-16T04:53:12.110Z,68.6
2022-08-16T04:55:15.751Z,68.6
2022-08-16T04:57:12.290Z,67.8
2022-08-16T04:59:12.899Z,67.8
2022-08-16T05:01:13.525Z,66.9
2022-08-16T05:03:17.668Z,67.4
2022-08-16T05:05:17.232Z,66.9
2022-08-16T05:07:30.492Z,66.3
2022-08-16T05:09:17.237Z,65.6
2022-08-16T05:11:17.931Z,66.4
2022-08-16T05:13:18.094Z,65.6
2022-08-16T05:15:18.569Z,64.4
2022-08-16T05:17:19.313Z,64.4
2022-08-16T05:19:39.663Z,64.4
2022-08-16T05:21:22.230Z,63.7
2022-08-16T05:23:21.216Z,64
2022-08-16T05:25:25.077Z,62.7
2022-08-16T05:27:22.905Z,63.2
2022-08-16T05:30:00.879Z,62
2022-08-16T05:31:29.468Z,61.9
2022-08-16T05:33:24.576Z,62.1
2022-08-16T05:35:39.678Z,62.1
2022-08-16T05:37:26.793Z,62.1
2022-08-16T05:39:27.646Z,62.1
2022-08-16T05:41:27.382Z,60.8
2022-08-16T05:43:28.498Z,61
2022-08-16T05:45:31.973Z,61
2022-08-16T05:47:30.307Z,61
2022-08-16T05:49:39.972Z,60.2
2022-08-16T05:51:37.697Z,60.2
2022-08-16T05:53:38.672Z,60.2
2022-08-16T05:55:32.309Z,59.5
2022-08-16T05:57:35.439Z,59.5
2022-08-16T05:59:34.608Z,59.5
2022-08-16T06:01:38.311Z,58.9
2022-08-16T06:03:38.846Z,58.3
2022-08-16T06:05:36.288Z,58.3
2022-08-16T06:07:41.601Z,57.7
2022-08-16T06:09:44.427Z,57.7
2022-08-16T06:11:38.758Z,57.2
2022-08-16T06:13:42.319Z,57.2
2022-08-16T06:15:41.514Z,56.1
2022-08-16T06:17:43.603Z,56.1
2022-08-16T06:19:46.228Z,54.7
2022-08-16T06:21:42.073Z,54.7
2022-08-16T06:23:43.906Z,55.4
2022-08-16T06:25:43.834Z,54.9
2022-08-16T06:27:57.195Z,54.9
2022-08-16T06:29:50.254Z,54.3
2022-08-16T06:31:48.944Z,53.8
2022-08-16T06:33:48.448Z,53.6
2022-08-16T06:35:47.684Z,53.2
2022-08-16T06:37:51.505Z,53.2
2022-08-16T06:39:55.616Z,53.2
2022-08-16T06:42:04.645Z,52.1
2022-08-16T06:43:51.748Z,52.3
2022-08-16T06:45:54.885Z,51.5
2022-08-16T06:47:52.799Z,50.2
2022-08-16T06:49:54.350Z,49.3
2022-08-16T06:52:02.633Z,50.2
2022-08-16T06:53:54.406Z,49.6
2022-08-16T06:55:57.489Z,50.2
2022-08-16T06:57:57.103Z,49.9
2022-08-16T06:59:58.478Z,48.9
2022-08-16T07:01:58.823Z,48.7
2022-08-16T07:04:02.740Z,48.2
2022-08-16T07:06:06.374Z,48.2
2022-08-16T07:08:00.473Z,48.2
2022-08-16T07:10:00.629Z,47
2022-08-16T07:12:05.573Z,46.8
2022-08-16T07:14:24.491Z,46.8
2022-08-16T07:16:04.612Z,47.1
2022-08-16T07:18:04.425Z,48.3
2022-08-16T07:20:35.057Z,45.5
2022-08-16T07:22:05.195Z,46
2022-08-16T07:24:06.478Z,47.1
2022-08-16T07:26:10.048Z,46.3
2022-08-16T07:28:12.050Z,45.1
2022-08-16T07:30:39.489Z,45.7
2022-08-16T07:32:09.777Z,47
2022-08-16T07:34:10.244Z,46
2022-08-16T07:36:21.642Z,46
2022-08-16T07:38:19.703Z,45.4
2022-08-16T07:40:14.923Z,46.4
2022-08-16T07:42:20.153Z,45.4
2022-08-16T07:44:16.373Z,46.9
2022-08-16T07:46:37.641Z,46.3
2022-08-16T07:48:16.599Z,45.9
2022-08-16T07:50:57.220Z,45.9
2022-08-16T07:52:20.506Z,47
2022-08-16T07:54:21.086Z,47
2022-08-16T07:56:17.012Z,47.2
2022-08-16T07:58:18.189Z,46.9
2022-08-16T08:00:19.329Z,46.9
2022-08-16T08:02:20.459Z,47
2022-08-16T08:04:20.225Z,47.6
2022-08-16T08:06:24.990Z,46.5
2022-08-16T08:08:50.168Z,46.5
2022-08-16T08:10:29.170Z,45.6
2022-08-16T08:12:31.313Z,46.6
2022-08-16T08:14:30.142Z,46.6
2022-08-16T08:16:30.956Z,45.9
2022-08-16T08:18:30.681Z,45.4
2022-08-16T08:20:27.925Z,44.8
2022-08-16T08:22:27.326Z,44.3
2022-08-16T08:24:31.947Z,44.3
2022-08-16T08:26:26.277Z,44.3
2022-08-16T08:28:29.859Z,43.6
2022-08-16T08:30:51.469Z,43.6
2022-08-16T08:32:58.073Z,42.4
2022-08-16T08:34:28.839Z,42.1
2022-08-16T08:36:33.481Z,41
2022-08-16T08:38:44.190Z,41.1
2022-08-16T08:40:31.187Z,40.5
2022-08-16T08:42:31.323Z,43.4
2022-08-16T08:44:38.415Z,41.6
2022-08-16T08:46:35.770Z,41
2022-08-16T08:48:35.664Z,40.8
2022-08-16T08:50:34.954Z,40.6
2022-08-16T08:52:37.929Z,41.6
2022-08-16T08:54:35.125Z,41
2022-08-16T08:56:45.970Z,41.7
2022-08-16T08:58:54.330Z,40.7
2022-08-16T09:00:51.131Z,40.7
2022-08-16T09:02:38.179Z,40.1
2022-08-16T09:04:40.125Z,41.8
2022-08-16T09:06:43.233Z,40.7
2022-08-16T09:08:47.407Z,39.3
2022-08-16T09:10:40.987Z,40.2
2022-08-16T09:12:46.643Z,41
2022-08-16T09:14:47.181Z,41.9
2022-08-16T09:17:01.128Z,41.1
2022-08-16T09:18:43.664Z,42.7
2022-08-16T09:20:59.646Z,42.7
2022-08-16T09:22:51.172Z,41.8
2022-08-16T09:24:52.008Z,42.1
2022-08-16T09:26:46.612Z,42.1
2022-08-16T09:29:15.345Z,42.1
2022-08-16T09:30:46.667Z,42.8
2022-08-16T09:32:47.499Z,43.8
2022-08-16T09:34:47.820Z,44.3
2022-08-16T09:36:48.591Z,44.3
2022-08-16T09:38:48.975Z,43.8
2022-08-16T09:40:50.340Z,43.6
2022-08-16T09:42:56.559Z,43.1
2022-08-16T09:45:12.161Z,42.2
2022-08-16T09:46:57.490Z,42.2
2022-08-16T09:48:52.287Z,42.2
2022-08-16T09:50:52.682Z,41.9
2022-08-16T09:52:53.331Z,41.9
2022-08-16T09:54:53.889Z,42.5
2022-08-16T09:56:54.653Z,41.8
2022-08-16T09:59:04.790Z,41.8
2022-08-16T10:00:56.052Z,41.8
2022-08-16T10:02:56.642Z,41.2
2022-08-16T10:04:57.829Z,41.2
2022-08-16T10:09:06.036Z,41.2
2022-08-16T10:10:58.857Z,42.4
2022-08-16T10:12:59.776Z,42.4
2022-08-16T10:15:00.087Z,42.7
2022-08-16T10:17:03.823Z,43.1
2022-08-16T10:19:06.395Z,43.6
2022-08-16T10:21:01.980Z,42
2022-08-16T10:23:07.412Z,42
2022-08-16T10:25:04.288Z,43.1
2022-08-16T10:27:25.996Z,43.6
2022-08-16T10:29:05.193Z,43
2022-08-16T10:31:07.092Z,42.5
2022-08-16T10:33:05.674Z,43.2
2022-08-16T10:35:07.395Z,43.2
2022-08-16T10:37:07.052Z,43.2
2022-08-16T10:39:08.503Z,43.2
2022-08-16T10:41:10.337Z,43.2
2022-08-16T10:43:08.963Z,43.9
2022-08-16T10:45:09.891Z,44.3
2022-08-16T10:47:11.555Z,43.1
2022-08-16T10:49:12.512Z,43.1
2022-08-16T10:51:11.812Z,43.7
2022-08-16T10:53:11.779Z,43.1
2022-08-16T10:57:13.053Z,43.6
2022-08-16T10:59:32.905Z,43.7
2022-08-16T11:01:43.616Z,43.7
2022-08-16T11:05:17.511Z,43.8
2022-08-16T11:09:25.456Z,43
2022-08-16T11:11:19.627Z,42.2
2022-08-16T11:13:57.424Z,42.9
2022-08-16T11:15:18.915Z,42.9
2022-08-16T11:17:19.069Z,42.8
2022-08-16T11:19:19.621Z,43.9
2022-08-16T11:21:29.303Z,43.4
2022-08-16T11:23:20.768Z,43.4
2022-08-16T11:27:24.023Z,43.8
2022-08-16T11:29:22.683Z,43.8
2022-08-16T11:31:23.508Z,43.9
2022-08-16T11:33:51.794Z,43.9
2022-08-16T11:37:27.442Z,44.6
2022-08-16T11:39:25.814Z,44.6
2022-08-16T11:41:29.288Z,44.6
2022-08-16T11:43:29.183Z,44.6
2022-08-16T11:45:27.453Z,43.9
2022-08-16T11:47:28.874Z,43.9
2022-08-16T11:49:28.653Z,43.9
2022-08-16T11:51:29.306Z,43.4
2022-08-16T11:53:35.799Z,43.8
2022-08-16T11:55:31.520Z,44.1
2022-08-16T11:57:31.038Z,44.1
2022-08-16T11:59:32.786Z,44.7
2022-08-16T12:01:44.546Z,44.7
2022-08-16T12:03:35.276Z,45.3
2022-08-16T12:05:34.215Z,45.3
2022-08-16T12:07:34.262Z,44.8
2022-08-16T12:09:34.561Z,44.8
2022-08-16T12:11:35.191Z,44.8
2022-08-16T12:13:36.355Z,44.4
2022-08-16T12:15:36.981Z,44.5
2022-08-16T12:17:38.321Z,44.5
2022-08-16T12:19:37.975Z,44.5
2022-08-16T12:21:58.042Z,43.6
2022-08-16T12:23:38.775Z,44.3
2022-08-16T12:25:39.500Z,44.8
2022-08-16T12:27:40.767Z,44.8
2022-08-16T12:29:40.580Z,44.8
2022-08-16T12:31:59.329Z,44.8
2022-08-16T12:33:44.608Z,44.9
2022-08-16T12:35:45.899Z,44.9
2022-08-16T12:37:46.238Z,44.5
2022-08-16T12:39:50.817Z,44.5
2022-08-16T12:41:45.135Z,44.5
2022-08-16T12:43:45.331Z,44.6
2022-08-16T12:45:48.693Z,44
2022-08-16T12:47:46.297Z,44
2022-08-16T12:49:46.453Z,44.6
2022-08-16T12:51:58.280Z,45.3
2022-08-16T12:53:48.139Z,44.6
2022-08-16T12:55:49.159Z,44.6
2022-08-16T12:57:57.996Z,44.6
2022-08-16T12:59:49.468Z,44.6
2022-08-16T13:01:50.585Z,45.4
2022-08-16T13:04:08.266Z,45.8
2022-08-16T13:05:55.379Z,46
2022-08-16T13:07:53.324Z,45.2
2022-08-16T13:09:52.534Z,45.2
2022-08-16T13:11:58.102Z,44.7
2022-08-16T13:13:54.927Z,44.8
2022-08-16T13:16:02.037Z,44.8
2022-08-16T13:17:55.418Z,44.8
2022-08-16T13:20:07.142Z,45.4
2022-08-16T13:21:55.979Z,45.4
2022-08-16T13:23:56.689Z,46.2
2022-08-16T13:25:58.180Z,45.1
2022-08-16T13:28:03.274Z,45.1
2022-08-16T13:29:58.355Z,45.1
2022-08-16T13:31:59.256Z,45.1
2022-08-16T13:33:59.488Z,45.3
2022-08-16T13:36:02.560Z,45.7
2022-08-16T13:38:00.892Z,45.7
2022-08-16T13:40:01.799Z,45.1
2022-08-16T13:42:01.878Z,45.1
2022-08-16T13:44:09.048Z,45.1
2022-08-16T13:46:04.762Z,46
2022-08-16T13:48:04.414Z,45.4
2022-08-16T13:50:05.112Z,46
2022-08-16T13:52:04.992Z,46.5
2022-08-16T13:54:06.094Z,46.6
2022-08-16T13:56:06.187Z,46.6
2022-08-16T13:58:37.805Z,47
2022-08-16T14:00:13.241Z,46.3
2022-08-16T14:02:11.428Z,46.3
2022-08-16T14:04:08.780Z,46.3
2022-08-16T14:06:10.725Z,45.3
2022-08-16T14:08:09.390Z,46.3
2022-08-16T14:10:11.979Z,46.9
2022-08-16T14:12:20.549Z,46.9
2022-08-16T14:14:11.271Z,46.7
2022-08-16T14:16:12.503Z,46.7
2022-08-16T14:18:17.006Z,46.7
2022-08-16T14:20:19.200Z,46.7
2022-08-16T14:22:30.894Z,46.7
2022-08-16T14:24:22.496Z,46.9
2022-08-16T14:26:14.680Z,46.9
2022-08-16T14:28:15.190Z,46.9
2022-08-16T14:30:17.869Z,46.9
2022-08-16T14:32:33.706Z,46.9
2022-08-16T14:34:17.036Z,46.8
2022-08-16T14:36:18.833Z,46.8
2022-08-16T14:38:19.041Z,46.8
2022-08-16T14:40:19.840Z,46.8
2022-08-16T14:42:23.137Z,46.8
2022-08-16T14:44:19.914Z,47.7
2022-08-16T14:46:20.574Z,47.7
2022-08-16T14:48:25.997Z,47.7
2022-08-16T14:50:24.531Z,48.3
2022-08-16T14:52:44.431Z,48.3
2022-08-16T14:54:27.299Z,48.4
2022-08-16T14:56:38.962Z,48.4
2022-08-16T14:58:35.007Z,48.4
2022-08-16T15:00:27.010Z,48.9
2022-08-16T15:02:34.491Z,48.4
2022-08-16T15:04:32.236Z,48.8
2022-08-16T15:06:26.533Z,49.1
2022-08-16T15:08:34.187Z,49.1
2022-08-16T15:10:29.327Z,49.6
2022-08-16T15:12:33.282Z,49.6
2022-08-16T15:14:28.563Z,49.7
2022-08-16T15:16:29.352Z,49.7
2022-08-16T15:18:31.951Z,49.7
2022-08-16T15:20:32.988Z,49
2022-08-16T15:22:36.333Z,49.6
2022-08-16T15:24:31.459Z,49.2
2022-08-16T15:26:39.125Z,49.2
2022-08-16T15:28:33.405Z,49.1
2022-08-16T15:30:57.447Z,49.1
2022-08-16T15:32:33.749Z,49.1
2022-08-16T15:34:34.264Z,49.8
2022-08-16T15:36:35.665Z,49.8
2022-08-16T15:38:56.315Z,49.8
2022-08-16T15:40:36.500Z,49.8
2022-08-16T15:42:36.923Z,49.8
2022-08-16T15:44:50.940Z,50.4
2022-08-16T15:46:55.010Z,50.4
2022-08-16T15:48:40.368Z,50.4
2022-08-16T15:50:41.063Z,50.4
2022-08-16T15:52:39.375Z,50.4
2022-08-16T15:54:52.447Z,50.5
2022-08-16T15:56:42.588Z,50.5
2022-08-16T15:58:41.029Z,50.9
2022-08-16T16:00:43.121Z,50.9
2022-08-16T16:02:43.030Z,50.9
2022-08-16T16:04:42.756Z,51.3
2022-08-16T16:06:43.538Z,51.3
2022-08-16T16:08:43.821Z,51.3
2022-08-16T16:10:54.131Z,51.4
2022-08-16T16:12:54.494Z,51.4
2022-08-16T16:14:45.482Z,52
2022-08-16T16:16:46.234Z,52
2022-08-16T16:18:48.907Z,52
2022-08-16T16:20:50.529Z,52.8
2022-08-16T16:22:47.979Z,52.8
2022-08-16T16:24:48.383Z,53.1
2022-08-16T16:26:48.825Z,53.4
2022-08-16T16:29:07.801Z,53.4
2022-08-16T16:30:52.657Z,53.4
2022-08-16T16:32:50.517Z,53.4
2022-08-16T16:34:50.980Z,53.7
2022-08-16T16:36:51.530Z,53.7
2022-08-16T16:38:52.489Z,53.9
2022-08-16T16:40:54.147Z,53.9
2022-08-16T16:42:53.383Z,53.9
2022-08-16T16:44:57.514Z,54.4
2022-08-16T16:46:56.856Z,54.4
2022-08-16T16:48:54.758Z,55
2022-08-16T16:50:55.456Z,55
2022-08-16T16:52:56.385Z,55.5
2022-08-16T16:54:57.374Z,55.7
2022-08-16T16:56:57.096Z,55.7
2022-08-16T16:59:01.440Z,55.7
2022-08-16T17:00:59.057Z,55.7
2022-08-16T17:02:59.200Z,55.7
2022-08-16T17:04:59.093Z,55.8
2022-08-16T17:07:01.121Z,55.8
2022-08-16T17:09:00.373Z,56.1
2022-08-16T17:11:00.614Z,56.1
2022-08-16T17:13:02.025Z,56.1
2022-08-16T17:15:01.722Z,56.3
2022-08-16T17:17:04.781Z,56.3
2022-08-16T17:19:17.175Z,56.7
2022-08-16T17:21:05.044Z,56.7
2022-08-16T17:23:04.600Z,56.7
2022-08-16T17:25:07.746Z,57.1
2022-08-16T17:27:04.946Z,57.3
2022-08-16T17:29:11.417Z,57.3
2022-08-16T17:31:06.010Z,57.3
2022-08-16T17:33:08.064Z,57.9
2022-08-16T17:35:13.947Z,58
2022-08-16T17:37:08.072Z,58
2022-08-16T17:39:07.958Z,58.4
2022-08-16T17:41:08.439Z,58.4
2022-08-16T17:43:10.420Z,58.4
2022-08-16T17:45:09.970Z,59
2022-08-16T17:47:10.213Z,59
2022-08-16T17:49:10.420Z,59
2022-08-16T17:51:11.053Z,59.6
2022-08-16T17:53:12.905Z,59.6
2022-08-16T17:55:19.881Z,59.9
2022-08-16T17:57:12.366Z,59.9
2022-08-16T17:59:12.842Z,60.1
2022-08-16T18:01:13.496Z,60.1
2022-08-16T18:03:17.134Z,60.1
2022-08-16T18:05:14.245Z,60.4
2022-08-16T18:07:15.051Z,60.4
2022-08-16T18:09:15.327Z,60.7
2022-08-16T18:11:17.184Z,60.7
2022-08-16T18:13:16.578Z,60.7
2022-08-16T18:15:17.804Z,60.9
2022-08-16T18:17:17.269Z,60.9
2022-08-16T18:19:17.674Z,61.2
2022-08-16T18:21:18.232Z,61.2
2022-08-16T18:23:22.021Z,61.2
2022-08-16T18:25:19.173Z,61.4
2022-08-16T18:27:26.292Z,61.4
2022-08-16T18:29:20.085Z,61.9
2022-08-16T18:31:20.568Z,61.9
2022-08-16T18:33:23.253Z,61.9
2022-08-16T18:35:22.209Z,62
2022-08-16T18:37:22.684Z,62
2022-08-16T18:39:22.714Z,62.5
2022-08-16T18:41:25.832Z,62.5
2022-08-16T18:44:22.585Z,62.5
2022-08-16T18:45:26.390Z,63
2022-08-16T18:47:24.504Z,63
2022-08-16T18:49:24.960Z,63
2022-08-16T18:51:25.750Z,63
2022-08-16T18:53:27.788Z,63.6
2022-08-16T18:55:28.451Z,63.6
2022-08-16T18:57:26.878Z,63.6
2022-08-16T18:59:30.149Z,64.1
2022-08-16T19:01:27.821Z,64.1
2022-08-16T19:03:30.657Z,64.4
2022-08-16T19:05:30.974Z,64.4
2022-08-16T19:07:31.259Z,64.4
2022-08-16T19:09:29.602Z,64.4
2022-08-16T19:11:30.244Z,64.4
2022-08-16T19:13:33.019Z,64.4
2022-08-16T19:15:30.995Z,64.8
2022-08-16T19:17:31.623Z,64.8
2022-08-16T19:19:31.935Z,64.8
2022-08-16T19:21:32.411Z,64.8
2022-08-16T19:23:35.871Z,65
2022-08-16T19:25:46.955Z,65
2022-08-16T19:27:34.490Z,65.4
2022-08-16T19:29:34.229Z,65.4
2022-08-16T19:31:34.749Z,65.4
2022-08-16T19:33:35.943Z,65.8
2022-08-16T19:35:36.672Z,66
2022-08-16T19:37:46.080Z,66
2022-08-16T19:39:37.356Z,66
2022-08-16T19:41:40.195Z,66.5
2022-08-16T19:43:37.517Z,66.8
2022-08-16T19:45:43.851Z,66.8
2022-08-16T19:47:38.386Z,66.8
2022-08-16T19:49:39.348Z,67.3
2022-08-16T19:51:39.373Z,67.3
2022-08-16T19:53:39.771Z,67.6
2022-08-16T19:55:40.771Z,68
2022-08-16T19:57:41.531Z,68
2022-08-16T19:59:42.124Z,68.5
2022-08-16T20:01:43.450Z,68.5
2022-08-16T20:03:42.090Z,68.9
2022-08-16T20:05:43.971Z,69
2022-08-16T20:07:43.267Z,69
2022-08-16T20:09:44.514Z,69
2022-08-16T20:11:44.570Z,69
2022-08-16T20:13:44.410Z,69.4
2022-08-16T20:15:46.622Z,69.4
2022-08-16T20:17:46.563Z,69.4
2022-08-16T20:19:45.911Z,69.5
2022-08-16T20:21:46.218Z,69.5
2022-08-16T20:23:46.600Z,69.8
2022-08-16T20:25:49.728Z,69.8
2022-08-16T20:27:47.592Z,70.2
2022-08-16T20:29:48.875Z,70.2
2022-08-16T20:31:48.401Z,70.2
2022-08-16T20:33:48.965Z,70.8
2022-08-16T20:35:49.416Z,70.8
2022-08-16T20:37:49.771Z,70.8
2022-08-16T20:40:05.696Z,71.4
2022-08-16T20:41:50.699Z,71.4
2022-08-16T20:43:51.020Z,71.8
2022-08-16T20:45:51.399Z,72
2022-08-16T20:47:51.853Z,72
2022-08-16T20:49:52.576Z,72
2022-08-16T20:51:57.217Z,72
2022-08-16T20:53:53.162Z,72.3
2022-08-16T20:55:53.570Z,72.3
2022-08-16T20:57:53.929Z,72.3
2022-08-16T20:59:54.404Z,72.5
2022-08-16T21:01:55.415Z,72.5
2022-08-16T21:03:55.217Z,72.5
2022-08-16T21:05:56.944Z,72.5
2022-08-16T21:07:56.313Z,72.5
2022-08-16T21:09:56.536Z,72.5
2022-08-16T21:11:58.444Z,72.5
2022-08-16T21:14:00.737Z,72.6
2022-08-16T21:15:58.386Z,72.6
2022-08-16T21:17:59.060Z,72.6
2022-08-16T21:19:58.648Z,73
2022-08-16T21:22:10.221Z,73
2022-08-16T21:23:59.589Z,73.1
2022-08-16T21:26:00.035Z,73.1
2022-08-16T21:28:39.159Z,73.1
2022-08-16T21:30:00.786Z,73.1
2022-08-16T21:32:06.257Z,73.1
2022-08-16T21:34:01.568Z,73.5
2022-08-16T21:36:02.935Z,73.5
2022-08-16T21:38:28.712Z,73.5
2022-08-16T21:40:04.363Z,73.5
2022-08-16T21:42:07.662Z,73.6
2022-08-16T21:44:04.058Z,73.5
2022-08-16T21:46:06.350Z,73.5
2022-08-16T21:48:05.632Z,73.5
2022-08-16T21:50:06.106Z,73.5
2022-08-16T21:52:07.357Z,73.5
2022-08-16T21:54:05.779Z,73.9
2022-08-16T21:56:07.074Z,73.9
2022-08-16T21:58:06.760Z,73.9
2022-08-16T22:00:12.239Z,73.9
2022-08-16T22:02:07.309Z,74.2
2022-08-16T22:04:36.773Z,74.1
2022-08-16T22:06:14.252Z,74.1
2022-08-16T22:08:09.248Z,73.6
2022-08-16T22:11:01.266Z,73.6
2022-08-16T22:12:13.890Z,73.6
2022-08-16T22:14:09.858Z,74.1
2022-08-16T22:16:10.066Z,74.2
2022-08-16T22:18:10.675Z,74.2
2022-08-16T22:20:10.993Z,74.2
2022-08-16T22:22:11.916Z,74.2
2022-08-16T22:24:11.722Z,74.2
2022-08-16T22:26:12.025Z,74.2
2022-08-16T22:28:13.916Z,74.7
2022-08-16T22:30:13.589Z,74.7
2022-08-16T22:32:13.325Z,74.7
2022-08-16T22:34:13.880Z,75.2
2022-08-16T22:36:14.043Z,75.2
2022-08-16T22:38:56.397Z,75.2
2022-08-16T22:40:15.290Z,75.2
2022-08-16T22:42:15.194Z,75.2
2022-08-16T22:44:16.431Z,75.4
2022-08-16T22:46:15.958Z,75.4
2022-08-16T22:48:16.601Z,75.4
2022-08-16T22:50:17.129Z,75.4
2022-08-16T22:52:50.803Z,75.4
2022-08-16T22:54:40.916Z,75.6
2022-08-16T22:56:18.188Z,75.7
2022-08-16T22:58:18.275Z,75.7
2022-08-16T23:00:21.952Z,75.7
2022-08-16T23:02:19.140Z,75.7
2022-08-16T23:04:19.623Z,76.2
2022-08-16T23:06:20.564Z,76.2
2022-08-16T23:08:38.031Z,76.2
2022-08-16T23:10:21.302Z,76.2
2022-08-16T23:12:21.064Z,76.2
2022-08-16T23:14:21.585Z,76.4
2022-08-16T23:16:24.944Z,76.4
2022-08-16T23:18:26.937Z,76.4
2022-08-16T23:20:26.377Z,76.4
2022-08-16T23:22:24.704Z,76.4
2022-08-16T23:24:23.476Z,76.8
2022-08-16T23:26:45.255Z,76.8
2022-08-16T23:28:26.197Z,76.8
2022-08-16T23:30:25.945Z,76.8
2022-08-16T23:32:24.898Z,76.8
2022-08-16T23:34:27.595Z,76.9
2022-08-16T23:36:25.483Z,76.9
2022-08-16T23:38:37.664Z,76.9
2022-08-16T23:40:27.933Z,76.9
2022-08-16T23:42:53.170Z,76.9
2022-08-16T23:44:57.521Z,77.1
2022-08-16T23:46:27.503Z,77.1
2022-08-16T23:48:29.861Z,77.1
2022-08-16T23:50:29.388Z,77.1
2022-08-16T23:52:39.431Z,77.1
2022-08-16T23:54:28.702Z,77.1
2022-08-16T23:56:30.039Z,77.1
2022-08-16T23:58:31.777Z,77.1
